TimeCST,TemperatureF,Dew PointF,Humidity,Sea Level PressureIn,VisibilityMPH,Wind Direction,Wind SpeedMPH,Gust SpeedMPH,PrecipitationIn,Events,Conditions,WindDirDegrees,DateUTC
12:15 AM,17.6,3.2,53,30.11,10.0,South,13.8,20.7,N/A,Snow,Light Snow,190,2013-01-25 06:15:00
12:35 AM,17.6,3.2,53,30.09,10.0,South,19.6,-,N/A,,Overcast,190,2013-01-25 06:35:00
12:55 AM,17.6,3.2,53,30.10,9.0,SSW,16.1,-,N/A,Snow,Light Snow,200,2013-01-25 06:55:00
1:15 AM,17.6,3.2,53,30.11,10.0,SSW,11.5,17.3,N/A,,Overcast,210,2013-01-25 07:15:00
1:35 AM,17.6,3.2,53,30.11,10.0,SW,10.4,-,N/A,,Overcast,220,2013-01-25 07:35:00
1:55 AM,17.6,3.2,53,30.11,10.0,SSW,9.2,-,N/A,,Overcast,210,2013-01-25 07:55:00
2:15 AM,17.6,3.2,53,30.11,10.0,SW,8.1,-,N/A,,Mostly Cloudy,220,2013-01-25 08:15:00
2:35 AM,17.6,5.0,58,30.08,10.0,SSW,11.5,-,N/A,Snow,Light Snow,200,2013-01-25 08:35:00
2:55 AM,15.8,3.2,58,30.06,10.0,SSW,11.5,-,N/A,Snow,Light Snow,200,2013-01-25 08:55:00
3:15 AM,15.8,3.2,58,30.05,10.0,SSW,12.7,-,N/A,Snow,Light Snow,200,2013-01-25 09:15:00
3:35 AM,14.0,3.2,62,30.05,10.0,SSW,9.2,-,N/A,,Clear,210,2013-01-25 09:35:00
3:55 AM,14.0,3.2,62,30.04,10.0,SSW,11.5,-,N/A,,Clear,200,2013-01-25 09:55:00
4:15 AM,14.0,3.2,62,30.04,10.0,SSW,10.4,-,N/A,Snow,Light Snow,200,2013-01-25 10:15:00
4:35 AM,12.2,3.2,67,30.04,10.0,SSW,9.2,-,N/A,,Clear,210,2013-01-25 10:35:00
4:55 AM,12.2,3.2,67,30.03,10.0,SSW,10.4,-,N/A,,Clear,210,2013-01-25 10:55:00
5:15 AM,12.2,3.2,67,30.02,10.0,SSW,10.4,-,N/A,,Clear,210,2013-01-25 11:15:00
5:35 AM,12.2,3.2,67,30.01,10.0,SSW,10.4,-,N/A,Snow,Light Snow,210,2013-01-25 11:35:00
6:15 AM,10.4,3.2,73,30.01,10.0,SSW,8.1,-,N/A,,Clear,210,2013-01-25 12:15:00
6:35 AM,10.4,5.0,79,30.01,10.0,SSW,10.4,-,N/A,,Clear,210,2013-01-25 12:35:00
6:55 AM,10.4,5.0,79,30.01,10.0,SW,11.5,-,N/A,Snow,Light Snow,230,2013-01-25 12:55:00
7:35 AM,10.4,5.0,79,30.01,10.0,WSW,11.5,-,N/A,,Clear,240,2013-01-25 13:35:00
7:55 AM,12.2,5.0,73,30.01,10.0,WSW,12.7,-,N/A,,Mostly Cloudy,250,2013-01-25 13:55:00
8:15 AM,14.0,6.8,73,30.02,10.0,West,9.2,-,N/A,,Overcast,260,2013-01-25 14:15:00
8:35 AM,15.8,6.8,68,30.03,10.0,West,12.7,-,N/A,,Overcast,270,2013-01-25 14:35:00
8:55 AM,15.8,8.6,73,30.03,10.0,West,13.8,-,N/A,,Overcast,270,2013-01-25 14:55:00
9:15 AM,17.6,10.4,73,30.04,10.0,West,13.8,-,N/A,,Overcast,280,2013-01-25 15:15:00
9:35 AM,19.4,14.0,80,30.04,10.0,WNW,11.5,24.2,N/A,,Overcast,290,2013-01-25 15:35:00
9:55 AM,21.2,14.0,74,30.04,10.0,West,12.7,-,N/A,,Overcast,280,2013-01-25 15:55:00
10:15 AM,23.0,15.8,74,30.04,10.0,West,12.7,-,N/A,,Overcast,280,2013-01-25 16:15:00
10:35 AM,23.0,15.8,74,30.05,10.0,NW,15.0,-,N/A,,Overcast,310,2013-01-25 16:35:00
10:55 AM,26.6,17.6,69,30.05,10.0,NW,19.6,29.9,N/A,,Overcast,320,2013-01-25 16:55:00
11:15 AM,26.6,17.6,69,30.06,10.0,NW,21.9,28.8,N/A,Snow,Light Snow,310,2013-01-25 17:15:00
11:35 AM,26.6,17.6,69,30.05,10.0,NW,21.9,29.9,N/A,Snow,Light Snow,320,2013-01-25 17:35:00
11:55 AM,26.6,17.6,69,30.06,10.0,NW,27.6,-,N/A,Snow,Light Snow,310,2013-01-25 17:55:00
12:15 PM,28.4,17.6,64,30.05,10.0,NW,23.0,32.2,N/A,Snow,Light Snow,310,2013-01-25 18:15:00
12:35 PM,30.2,19.4,64,30.06,10.0,NW,25.3,31.1,N/A,Snow,Light Snow,310,2013-01-25 18:35:00
12:55 PM,28.4,19.4,69,30.06,10.0,NW,24.2,32.2,N/A,Snow,Light Snow,310,2013-01-25 18:55:00
1:15 PM,30.2,17.6,60,30.05,10.0,NW,23.0,31.1,N/A,Snow,Light Snow,320,2013-01-25 19:15:00
1:35 PM,28.4,17.6,64,30.06,10.0,NW,17.3,28.8,N/A,Snow,Light Snow,320,2013-01-25 19:35:00
1:55 PM,28.4,17.6,64,30.06,10.0,NW,18.4,27.6,N/A,Snow,Light Snow,320,2013-01-25 19:55:00
2:15 PM,26.6,15.8,64,30.07,10.0,NNW,21.9,32.2,N/A,Snow,Light Snow,330,2013-01-25 20:15:00
2:35 PM,26.6,14.0,59,30.07,10.0,NNW,20.7,27.6,N/A,Snow,Light Snow,340,2013-01-25 20:35:00
2:55 PM,24.8,8.6,50,30.09,9.0,North,19.6,27.6,N/A,Snow,Light Snow,350,2013-01-25 20:55:00
3:15 PM,23.0,6.8,50,30.09,10.0,NNW,17.3,27.6,N/A,Snow,Light Snow,340,2013-01-25 21:15:00
3:35 PM,23.0,5.0,46,30.10,10.0,North,20.7,28.8,N/A,Snow,Light Snow,350,2013-01-25 21:35:00
3:55 PM,21.2,5.0,50,30.10,10.0,NNW,19.6,28.8,N/A,Snow,Light Snow,340,2013-01-25 21:55:00
4:15 PM,21.2,3.2,46,30.11,10.0,NNW,19.6,26.5,N/A,Snow,Light Snow,340,2013-01-25 22:15:00
4:35 PM,19.4,3.2,49,30.12,10.0,North,19.6,-,N/A,Snow,Light Snow,350,2013-01-25 22:35:00
4:55 PM,17.6,1.4,49,30.13,10.0,NNW,17.3,-,N/A,Snow,Light Snow,340,2013-01-25 22:55:00
5:15 PM,17.6,1.4,49,30.14,10.0,NNW,11.5,20.7,N/A,,Clear,340,2013-01-25 23:15:00
5:35 PM,15.8,1.4,53,30.15,10.0,North,15.0,20.7,N/A,,Clear,350,2013-01-25 23:35:00
5:55 PM,14.0,-0.4,53,30.15,10.0,North,13.8,20.7,N/A,,Clear,350,2013-01-25 23:55:00
6:15 PM,14.0,-0.4,53,30.17,10.0,NNW,16.1,-,N/A,,Clear,340,2013-01-26 00:15:00
6:35 PM,12.2,-0.4,57,30.18,10.0,NNW,17.3,-,N/A,,Clear,330,2013-01-26 00:35:00
6:55 PM,12.2,-2.2,53,30.18,10.0,NNW,13.8,19.6,N/A,,Clear,340,2013-01-26 00:55:00
7:15 PM,10.4,-2.2,57,30.20,10.0,NNW,13.8,-,N/A,,Clear,340,2013-01-26 01:15:00
7:35 PM,10.4,-2.2,57,30.20,10.0,NNW,12.7,19.6,N/A,,Clear,330,2013-01-26 01:35:00
7:55 PM,10.4,-0.4,62,30.20,10.0,NNW,11.5,19.6,N/A,,Clear,340,2013-01-26 01:55:00
8:15 PM,8.6,-0.4,67,30.22,10.0,NNW,9.2,15.0,N/A,,Clear,340,2013-01-26 02:15:00
8:35 PM,8.6,-0.4,67,30.22,10.0,North,9.2,-,N/A,,Clear,350,2013-01-26 02:35:00
8:55 PM,8.6,-0.4,67,30.22,10.0,North,8.1,15.0,N/A,,Clear,360,2013-01-26 02:55:00
9:15 PM,6.8,-0.4,72,30.23,10.0,NNW,11.5,-,N/A,,Clear,340,2013-01-26 03:15:00
9:35 PM,6.8,-2.2,67,30.24,10.0,North,9.2,-,N/A,,Clear,350,2013-01-26 03:35:00
9:55 PM,6.8,-2.2,67,30.25,10.0,NNW,8.1,-,N/A,,Clear,340,2013-01-26 03:55:00
10:15 PM,6.8,-2.2,67,30.25,10.0,North,10.4,-,N/A,,Clear,360,2013-01-26 04:15:00
10:35 PM,6.8,-2.2,67,30.26,10.0,North,8.1,-,N/A,,Clear,350,2013-01-26 04:35:00
10:55 PM,5.0,-2.2,72,30.26,10.0,North,6.9,-,N/A,,Clear,350,2013-01-26 04:55:00
11:15 PM,5.0,-2.2,72,30.26,10.0,North,6.9,-,N/A,,Clear,360,2013-01-26 05:15:00
11:35 PM,5.0,-2.2,72,30.27,10.0,NNW,5.8,-,N/A,,Clear,340,2013-01-26 05:35:00
11:55 PM,5.0,-2.2,72,30.26,10.0,North,5.8,-,N/A,,Clear,360,2013-01-26 05:55:00